To NAV CANADA Home Page Login to a new session Search on AWWS site Feedback and Comments Disclaimer Vers la page française équivalente Tips FAQ What's new on the site To the Forecasts and Observations / NOTAM section To "File a Flight Plan" website Publications and other links Update of the User's profile FIC Telephone Numbers My Weather Data Folder Route Weather Data Regional Weather Data Local Weather Data To the Forecasts and Observations / NOTAM section
Request Generated 04/24/2014 at 17:59:48 UTC . Weather information available at that time is displayed.

METAR/TAF

MONTREAL/PIERRE-ELLIOTT-TRUDEAU INTL/QC    

METAR CYUL 241700Z 30016G24KT 30SM FEW050 10/M05 A2993 RMK SC1
SLP135=
METAR CYUL 241600Z 28019G25KT 30SM FEW050 09/M05 A2993 RMK SC1 SC TR
SLP136=
METAR CYUL 241500Z 28013G20KT 30SM FEW050 07/M05 A2992 RMK SC1 SC TR
SLP134=

TAF CYUL 241738Z 2418/2518 31015G25KT P6SM FEW050
BECMG 2422/2424 32012KT
BECMG 2504/2506 33008KT
FM251700 VRB03KT P6SM SCT140
RMK NXT FCST BY 242100Z=
Your time UTC time
Weather data provided by Environment Canada and NAV CANADA